Time;durP1;ratioP1;P1;durP2;ratioP2;P2;SDS_P1;SDS_P2;PMS_P1;PMS_P2;Temp;Humidity;BMP_temperature;BMP_pressure;BME280_temperature;BME280_humidity;BME280_pressure;Samples;Min_cycle;Max_cycle;Signal;HPM_P1;HPM_P2
2022/04/25 00:01:29;;;;;;;10.07;4.88;;;9.00;96.00;;;;;;4231115;28;20560;-84
2022/04/25 00:03:30;;;;;;;10.15;4.00;;;9.00;96.10;;;;;;4249592;27;20077;-84
2022/04/25 00:05:30;;;;;;;9.75;4.65;;;9.70;96.20;;;;;;4249547;27;20039;-84
2022/04/25 00:07:31;;;;;;;10.82;4.60;;;9.10;96.00;;;;;;4249636;27;20072;-84
2022/04/25 00:09:32;;;;;;;11.25;4.80;;;9.50;96.10;;;;;;4244688;27;20039;-85
2022/04/25 00:11:33;;;;;;;11.60;4.82;;;9.20;96.20;;;;;;4242651;27;20422;-84
2022/04/25 00:13:33;;;;;;;11.20;4.70;;;9.20;96.20;;;;;;4249084;27;20070;-84
2022/04/25 00:15:34;;;;;;;10.73;5.43;;;9.20;96.20;;;;;;4249632;27;20082;-84
2022/04/25 00:17:35;;;;;;;8.48;4.50;;;9.20;96.20;;;;;;4249285;27;20051;-84
2022/04/25 00:19:35;;;;;;;10.70;4.93;;;9.30;96.30;;;;;;4249955;27;20126;-84
2022/04/25 00:21:36;;;;;;;10.25;4.90;;;9.30;96.30;;;;;;4249708;27;20031;-84
2022/04/25 00:23:37;;;;;;;11.88;4.75;;;9.30;96.30;;;;;;4249561;27;20038;-84
2022/04/25 00:25:37;;;;;;;10.13;5.07;;;9.70;96.50;;;;;;4231159;28;20124;-84
2022/04/25 00:27:38;;;;;;;11.73;4.30;;;9.30;96.50;;;;;;4231896;27;20094;-84
2022/04/25 00:29:39;;;;;;;11.18;4.50;;;9.30;96.60;;;;;;4232258;28;20048;-85
2022/04/25 00:31:40;;;;;;;12.35;5.32;;;9.40;96.70;;;;;;4249080;27;20049;-84
2022/04/25 00:33:41;;;;;;;11.30;5.40;;;9.70;96.70;;;;;;4249136;27;20078;-84
2022/04/25 00:35:43;;;;;;;13.10;6.20;;;9.40;96.80;;;;;;4230930;28;20032;-83
2022/04/25 00:37:43;;;;;;;9.60;5.28;;;9.40;96.80;;;;;;4230950;28;20464;-83
2022/04/25 00:39:45;;;;;;;10.35;4.57;;;9.90;97.00;;;;;;4249026;27;20039;-83
2022/04/25 00:41:46;;;;;;;14.15;5.20;;;9.50;96.90;;;;;;4249010;27;20039;-84
2022/04/25 00:43:47;;;;;;;9.77;5.63;;;9.70;97.00;;;;;;4248667;27;20460;-83
2022/04/25 00:45:47;;;;;;;11.18;5.10;;;9.50;96.90;;;;;;4248232;27;20406;-83
2022/04/25 00:47:48;;;;;;;10.70;5.28;;;9.50;96.90;;;;;;4231020;28;20051;-83
2022/04/25 00:49:49;;;;;;;13.15;5.93;;;9.50;97.00;;;;;;4249097;27;20091;-84
2022/04/25 00:51:51;;;;;;;11.30;6.03;;;9.50;97.20;;;;;;4231085;28;20044;-84
2022/04/25 00:53:53;;;;;;;14.90;5.93;;;9.50;97.30;;;;;;4249186;27;20035;-84
2022/04/25 00:55:54;;;;;;;10.00;5.70;;;9.70;97.40;;;;;;4249508;27;20047;-84
2022/04/25 00:57:56;;;;;;;9.90;4.95;;;10.00;97.50;;;;;;4249234;27;20126;-84
2022/04/25 00:59:58;;;;;;;10.77;5.47;;;9.60;97.40;;;;;;4248487;27;20039;-84
2022/04/25 01:01:58;;;;;;;8.75;4.93;;;10.10;97.60;;;;;;4248959;27;20096;-84
2022/04/25 01:03:59;;;;;;;11.27;6.28;;;9.60;97.60;;;;;;4248311;27;20041;-84
2022/04/25 01:06:00;;;;;;;11.07;6.10;;;9.90;97.70;;;;;;4248779;27;20066;-84
2022/04/25 01:08:01;;;;;;;14.63;5.25;;;10.00;97.80;;;;;;4248722;27;20039;-84
2022/04/25 01:10:03;;;;;;;11.65;5.70;;;9.60;97.80;;;;;;4248846;27;20114;-84
2022/04/25 01:12:04;;;;;;;11.18;5.95;;;9.50;97.80;;;;;;4248621;27;20070;-85
2022/04/25 01:14:19;;;;;;;9.13;5.32;;;9.50;97.80;;;;;;4248510;27;20046;-85
2022/04/25 01:16:20;;;;;;;13.55;5.32;;;10.30;98.30;;;;;;4247624;27;20039;-85
2022/04/25 01:18:21;;;;;;;11.40;4.93;;;9.50;97.80;;;;;;4262313;27;20069;-85
2022/04/25 01:20:21;;;;;;;9.77;5.82;;;9.50;97.90;;;;;;4265809;27;20102;-85
2022/04/25 01:22:30;;;;;;;14.30;6.20;;;9.50;97.90;;;;;;4265499;27;20045;-85
2022/04/25 01:29:12;;;;;;;13.35;6.32;;;9.50;98.00;;;;;;4265214;27;20061;-85
2022/04/25 01:31:13;;;;;;;14.07;6.53;;;9.40;98.10;;;;;;4265589;27;20095;-85
2022/04/25 01:33:14;;;;;;;12.23;6.40;;;9.40;98.10;;;;;;4247452;27;20526;-84
2022/04/25 01:35:14;;;;;;;14.48;5.53;;;9.40;98.10;;;;;;4245875;27;20066;-85
2022/04/25 01:37:17;;;;;;;11.85;6.95;;;9.50;98.10;;;;;;4265373;27;20087;-85
2022/04/25 01:39:19;;;;;;;14.20;6.63;;;9.50;98.10;;;;;;4265375;27;20109;-85
2022/04/25 01:41:20;;;;;;;10.82;6.00;;;9.80;98.20;;;;;;4265497;27;20050;-85
2022/04/25 01:43:20;;;;;;;8.63;5.70;;;10.10;98.30;;;;;;4265250;27;20043;-84
2022/04/25 01:45:22;;;;;;;15.30;6.65;;;10.10;98.30;;;;;;4265627;27;20042;-84
2022/04/25 01:47:23;;;;;;;9.77;5.50;;;10.00;98.40;;;;;;4265439;27;20414;-83
2022/04/25 01:49:25;;;;;;;11.68;5.63;;;10.40;98.50;;;;;;4265358;27;20035;-85
2022/04/25 01:51:26;;;;;;;12.63;5.43;;;10.40;98.60;;;;;;4263840;27;20073;-85
2022/04/25 01:53:26;;;;;;;11.27;6.20;;;9.40;98.40;;;;;;4265074;27;20460;-84
2022/04/25 01:55:27;;;;;;;15.15;6.30;;;9.30;98.50;;;;;;4246878;27;20505;-83
2022/04/25 01:57:29;;;;;;;8.68;5.50;;;9.30;98.50;;;;;;4265871;27;20047;-83
2022/04/25 01:59:30;;;;;;;15.32;5.72;;;9.30;98.50;;;;;;4267058;27;20039;-83
2022/04/25 02:01:31;;;;;;;12.20;6.32;;;10.00;98.70;;;;;;4266758;27;20135;-83
2022/04/25 02:03:33;;;;;;;13.50;6.25;;;9.80;98.70;;;;;;4267122;27;20035;-84
2022/04/25 02:05:34;;;;;;;11.35;5.20;;;9.40;98.60;;;;;;4266815;27;20039;-84
2022/04/25 02:07:35;;;;;;;12.43;6.35;;;9.50;98.60;;;;;;4250262;27;20047;-85
2022/04/25 02:09:37;;;;;;;12.95;5.13;;;9.30;98.50;;;;;;4262286;27;20405;-84
2022/04/25 02:11:38;;;;;;;13.65;5.70;;;9.60;98.80;;;;;;4266944;27;20091;-84
2022/04/25 02:13:38;;;;;;;7.97;5.00;;;9.60;98.50;;;;;;4264292;27;20042;-85
2022/04/25 02:15:40;;;;;;;12.77;5.00;;;9.60;98.50;;;;;;4253777;27;20113;-83
2022/04/25 02:17:44;;;;;;;9.52;5.13;;;9.50;98.60;;;;;;4253788;27;20410;-84
2022/04/25 02:19:45;;;;;;;12.27;5.35;;;9.10;98.50;;;;;;4265251;27;20043;-84
2022/04/25 02:21:46;;;;;;;10.25;5.45;;;9.20;98.40;;;;;;4259730;27;20151;-84
2022/04/25 02:23:48;;;;;;;9.32;4.80;;;9.40;98.50;;;;;;4246021;28;20090;-84
2022/04/25 02:25:48;;;;;;;11.90;4.25;;;9.10;98.30;;;;;;4264794;27;20046;-84
2022/04/25 02:27:50;;;;;;;12.80;5.13;;;9.10;98.20;;;;;;4265074;27;20390;-84
2022/04/25 02:29:57;;;;;;;12.65;4.68;;;9.00;98.20;;;;;;4265164;27;20038;-84
2022/04/25 02:31:59;;;;;;;9.48;4.45;;;9.10;98.20;;;;;;4264417;27;20086;-85
2022/04/25 02:34:00;;;;;;;8.65;4.60;;;9.40;98.20;;;;;;4264620;27;20409;-85
2022/04/25 02:36:04;;;;;;;11.02;5.93;;;9.00;98.00;;;;;;4264797;27;20054;-84
2022/04/25 02:38:05;;;;;;;11.88;5.35;;;9.00;98.00;;;;;;4265991;27;20053;-84
2022/04/25 02:40:06;;;;;;;10.50;4.65;;;9.00;98.00;;;;;;4252507;27;20039;-84
2022/04/25 02:42:07;;;;;;;12.88;5.38;;;9.00;98.10;;;;;;4251267;27;20074;-84
2022/04/25 02:44:08;;;;;;;12.88;5.25;;;9.10;98.10;;;;;;4250731;27;20047;-84
2022/04/25 02:46:11;;;;;;;12.80;4.70;;;9.10;98.10;;;;;;4250782;27;20122;-84
2022/04/25 02:48:12;;;;;;;10.05;4.75;;;9.40;98.20;;;;;;4250559;27;20118;-84
2022/04/25 02:50:12;;;;;;;9.43;5.13;;;9.60;98.30;;;;;;4232327;28;20487;-84
2022/04/25 02:52:13;;;;;;;8.65;5.10;;;10.00;98.70;;;;;;4250672;27;20046;-84
2022/04/25 02:54:14;;;;;;;8.93;4.63;;;9.10;98.30;;;;;;4232356;28;20048;-84
2022/04/25 02:56:14;;;;;;;9.85;4.38;;;9.20;98.40;;;;;;4239420;27;20475;-84
2022/04/25 02:58:15;;;;;;;11.25;4.70;;;9.70;98.60;;;;;;4250133;27;20043;-85
2022/04/25 03:00:16;;;;;;;9.68;4.80;;;9.20;98.60;;;;;;4250702;27;20467;-84
2022/04/25 03:02:17;;;;;;;7.90;3.92;;;9.10;98.60;;;;;;4250211;27;20047;-84
2022/04/25 03:04:18;;;;;;;9.55;4.63;;;9.40;98.70;;;;;;4257511;27;20481;-84
2022/04/25 03:06:18;;;;;;;8.50;4.38;;;9.20;98.70;;;;;;4267431;27;20094;-84
2022/04/25 03:08:21;;;;;;;8.70;3.92;;;9.20;99.00;;;;;;4267404;27;20042;-84
2022/04/25 03:10:22;;;;;;;9.20;3.92;;;9.50;98.80;;;;;;4267407;27;20094;-84
2022/04/25 03:12:23;;;;;;;8.48;4.32;;;9.10;98.70;;;;;;4252575;27;20039;-84
2022/04/25 03:14:24;;;;;;;7.63;3.72;;;9.40;98.90;;;;;;4250123;27;20035;-84
2022/04/25 03:16:25;;;;;;;10.02;4.55;;;9.60;98.90;;;;;;4249576;27;20070;-84
2022/04/25 03:18:26;;;;;;;9.23;3.80;;;9.10;98.80;;;;;;4249922;27;20047;-84
2022/04/25 03:20:28;;;;;;;8.18;4.25;;;9.10;98.80;;;;;;4231907;28;20476;-84
2022/04/25 03:22:28;;;;;;;9.20;4.43;;;10.20;99.10;;;;;;4249317;27;20035;-84
2022/04/25 03:24:30;;;;;;;7.82;4.25;;;9.00;98.80;;;;;;4249702;27;20070;-84
2022/04/25 03:26:31;;;;;;;12.75;4.75;;;9.00;98.70;;;;;;4249913;27;20050;-84
2022/04/25 03:28:32;;;;;;;8.85;4.88;;;9.60;98.90;;;;;;4260917;27;20121;-85
2022/04/25 03:30:33;;;;;;;11.43;5.03;;;9.00;98.80;;;;;;4267170;27;20121;-85
2022/04/25 03:32:34;;;;;;;12.35;5.47;;;9.00;98.80;;;;;;4266722;27;20042;-84
2022/04/25 03:34:37;;;;;;;9.38;4.63;;;9.00;98.80;;;;;;4267119;27;20046;-84
2022/04/25 03:36:38;;;;;;;9.35;4.57;;;9.40;98.90;;;;;;4267317;27;20119;-84
2022/04/25 03:38:42;;;;;;;9.15;4.72;;;8.90;98.90;;;;;;4249174;27;20419;-84
2022/04/25 03:40:43;;;;;;;11.27;6.05;;;9.50;99.30;;;;;;4267058;27;20043;-84
2022/04/25 03:42:44;;;;;;;7.78;4.75;;;8.90;98.90;;;;;;4266893;27;20191;-84
2022/04/25 03:44:45;;;;;;;10.18;5.45;;;8.80;98.90;;;;;;4264534;27;20172;-84
2022/04/25 03:46:46;;;;;;;9.75;5.03;;;8.60;98.90;;;;;;4249774;27;20444;-84
2022/04/25 03:48:46;;;;;;;10.35;5.30;;;8.80;99.00;;;;;;4249470;27;20368;-84
2022/04/25 03:50:48;;;;;;;10.32;4.95;;;9.20;99.10;;;;;;4231453;28;20112;-84
2022/04/25 03:52:48;;;;;;;9.65;5.07;;;8.70;98.90;;;;;;4249849;27;20043;-84
2022/04/25 03:57:13;;;;;;;10.23;4.38;;;8.70;99.00;;;;;;4228079;27;20407;-85
2022/04/25 03:59:13;;;;;;;10.93;4.45;;;8.70;99.00;;;;;;4250930;27;20036;-84
2022/04/25 04:01:14;;;;;;;7.63;4.53;;;8.60;98.90;;;;;;4250317;27;20555;-84
2022/04/25 04:03:17;;;;;;;10.93;4.07;;;8.60;98.90;;;;;;4250167;27;20047;-84
2022/04/25 04:05:20;;;;;;;9.57;4.78;;;8.60;99.10;;;;;;4249952;27;20039;-84
2022/04/25 04:07:21;;;;;;;9.38;4.28;;;9.00;99.10;;;;;;4249389;27;20570;-84
2022/04/25 04:11:47;;;;;;;10.05;5.32;;;8.50;99.00;;;;;;4231894;28;20134;-84
2022/04/25 04:13:48;;;;;;;11.77;4.65;;;8.50;99.00;;;;;;4249584;27;20042;-84
2022/04/25 04:15:48;;;;;;;10.13;4.95;;;9.10;99.10;;;;;;4231466;28;20044;-84
2022/04/25 04:17:49;;;;;;;10.20;4.65;;;8.50;99.30;;;;;;4248648;27;20059;-84
2022/04/25 04:19:52;;;;;;;9.73;4.47;;;9.00;99.30;;;;;;4249526;27;20041;-84
2022/04/25 04:21:52;;;;;;;10.30;4.88;;;8.40;99.20;;;;;;4249465;27;20560;-84
2022/04/25 04:23:53;;;;;;;10.55;4.28;;;9.00;99.40;;;;;;4249206;27;20035;-84
2022/04/25 04:25:54;;;;;;;10.13;5.43;;;8.50;99.20;;;;;;4249610;27;20402;-84
2022/04/25 04:27:54;;;;;;;12.85;4.90;;;8.40;99.20;;;;;;4249293;27;20056;-84
2022/04/25 04:29:55;;;;;;;10.65;4.50;;;8.40;99.10;;;;;;4249099;27;20038;-84
2022/04/25 04:32:07;;;;;;;10.00;4.57;;;8.40;99.30;;;;;;4248624;27;20537;-84
2022/04/25 04:34:07;;;;;;;12.23;4.82;;;8.40;99.30;;;;;;4249396;27;20114;-84
2022/04/25 04:36:17;;;;;;;9.15;4.88;;;8.40;99.30;;;;;;4248770;27;20038;-85
2022/04/25 04:38:18;;;;;;;13.35;5.15;;;9.20;99.50;;;;;;4249336;27;20519;-84
2022/04/25 04:40:28;;;;;;;11.35;4.72;;;8.40;99.40;;;;;;4248886;27;20050;-84
2022/04/25 04:42:29;;;;;;;16.52;5.55;;;8.40;99.40;;;;;;4249265;27;20036;-84
2022/04/25 04:44:30;;;;;;;10.15;4.78;;;8.60;99.40;;;;;;4248892;27;20047;-85
2022/04/25 04:46:30;;;;;;;9.68;4.50;;;8.40;99.50;;;;;;4249063;27;20121;-84
2022/04/25 04:48:31;;;;;;;8.93;4.55;;;8.40;99.40;;;;;;4249364;27;20039;-84
2022/04/25 04:50:33;;;;;;;11.27;4.68;;;8.40;99.50;;;;;;4248978;27;20047;-84
2022/04/25 04:52:33;;;;;;;12.57;5.13;;;8.40;99.50;;;;;;4230076;27;20187;-84
2022/04/25 04:54:35;;;;;;;12.55;5.40;;;8.40;99.60;;;;;;4231000;28;20093;-84
2022/04/25 04:56:37;;;;;;;10.38;4.53;;;9.10;99.70;;;;;;4249207;27;20043;-84
2022/04/25 04:58:37;;;;;;;13.52;4.65;;;9.60;99.90;;;;;;4249061;27;20039;-84
2022/04/25 05:00:38;;;;;;;8.30;4.55;;;8.50;99.60;;;;;;4249187;27;20046;-84
2022/04/25 05:02:39;;;;;;;12.68;4.95;;;8.50;99.70;;;;;;4230280;28;20044;-85
2022/04/25 05:04:40;;;;;;;10.90;5.25;;;8.60;99.70;;;;;;4257413;27;20034;-84
2022/04/25 05:06:40;;;;;;;11.35;5.03;;;8.80;99.60;;;;;;4265390;27;20035;-84
2022/04/25 05:08:41;;;;;;;10.32;5.30;;;9.20;99.70;;;;;;4265953;27;20045;-84
2022/04/25 05:10:43;;;;;;;14.02;5.82;;;8.50;99.60;;;;;;4265831;27;20130;-84
2022/04/25 05:12:52;;;;;;;7.45;5.05;;;8.50;99.70;;;;;;4264604;27;20118;-84
2022/04/25 05:14:54;;;;;;;11.30;4.50;;;8.50;99.70;;;;;;4265856;27;20053;-83
2022/04/25 05:16:55;;;;;;;10.85;5.00;;;8.50;99.70;;;;;;4265082;27;20061;-83
2022/04/25 05:18:56;;;;;;;8.07;4.60;;;8.50;99.70;;;;;;4264472;27;20114;-83
2022/04/25 05:20:56;;;;;;;12.73;5.30;;;8.50;99.70;;;;;;4247729;27;20043;-83
2022/04/25 05:22:57;;;;;;;11.43;5.53;;;8.50;99.70;;;;;;4246638;27;20047;-83
2022/04/25 05:24:59;;;;;;;10.20;4.45;;;9.00;99.80;;;;;;4264929;27;20039;-83
2022/04/25 05:26:59;;;;;;;10.23;5.30;;;8.90;99.80;;;;;;4265153;27;20056;-84
2022/04/25 05:29:00;;;;;;;10.55;5.30;;;8.50;99.70;;;;;;4265149;27;20026;-84
2022/04/25 05:31:01;;;;;;;10.07;4.68;;;8.50;99.70;;;;;;4265499;27;20035;-83
2022/04/25 05:33:02;;;;;;;10.75;5.47;;;8.60;99.80;;;;;;4265553;27;20131;-83
2022/04/25 05:35:06;;;;;;;10.90;5.50;;;8.60;99.80;;;;;;4249455;27;20050;-84
2022/04/25 05:37:06;;;;;;;13.27;6.57;;;8.60;99.70;;;;;;4248119;27;20042;-84
2022/04/25 05:39:09;;;;;;;15.40;6.68;;;8.60;99.70;;;;;;4248425;27;20050;-84
2022/04/25 05:41:10;;;;;;;13.32;5.88;;;8.90;99.90;;;;;;4248253;27;20035;-83
2022/04/25 05:43:11;;;;;;;11.40;5.90;;;8.60;99.90;;;;;;4247518;27;20084;-83
2022/04/25 05:45:14;;;;;;;13.93;6.07;;;8.60;99.90;;;;;;4247288;27;20107;-83
2022/04/25 05:47:15;;;;;;;10.43;5.72;;;8.50;99.90;;;;;;4247845;27;20131;-83
2022/04/25 05:53:54;;;;;;;10.85;4.90;;;8.60;99.80;;;;;;4247850;27;20059;-84
2022/04/25 05:55:55;;;;;;;15.60;5.28;;;8.60;99.80;;;;;;4247644;27;20514;-83
2022/04/25 05:57:57;;;;;;;11.65;5.55;;;8.70;99.90;;;;;;4247784;27;20104;-84
2022/04/25 05:59:58;;;;;;;8.93;5.90;;;9.60;99.90;;;;;;4248067;27;20050;-84
2022/04/25 06:01:58;;;;;;;9.65;4.93;;;8.70;99.90;;;;;;4248204;27;20043;-84
2022/04/25 06:03:59;;;;;;;9.07;5.20;;;9.30;99.90;;;;;;4248204;27;20043;-84
2022/04/25 06:06:00;;;;;;;13.52;5.95;;;8.70;99.80;;;;;;4248213;27;20068;-83
2022/04/25 06:08:01;;;;;;;15.52;5.43;;;8.80;99.80;;;;;;4251172;27;20058;-84
2022/04/25 06:10:02;;;;;;;11.38;5.70;;;8.60;99.70;;;;;;4248939;27;20050;-84
2022/04/25 06:12:04;;;;;;;11.20;5.18;;;8.60;99.60;;;;;;4248699;27;20122;-84
2022/04/25 06:14:04;;;;;;;13.07;5.20;;;8.70;99.60;;;;;;4229966;28;20078;-84
2022/04/25 06:16:05;;;;;;;10.18;5.57;;;8.70;99.60;;;;;;4230049;28;20098;-83
2022/04/25 06:18:06;;;;;;;9.20;5.57;;;8.70;99.70;;;;;;4247455;28;20081;-83
2022/04/25 06:20:07;;;;;;;13.75;5.75;;;8.70;99.60;;;;;;4247901;28;20126;-84
2022/04/25 06:22:09;;;;;;;10.10;5.82;;;8.70;99.50;;;;;;4247648;28;20411;-84
2022/04/25 06:24:10;;;;;;;8.73;4.85;;;8.70;99.50;;;;;;4229787;28;20055;-84
2022/04/25 06:26:11;;;;;;;13.77;4.80;;;9.50;99.70;;;;;;4257721;27;20035;-84
2022/04/25 06:28:12;;;;;;;9.98;5.60;;;9.00;99.50;;;;;;4264786;27;20080;-83
2022/04/25 06:30:13;;;;;;;13.90;5.28;;;9.50;99.60;;;;;;4265134;27;20034;-84
2022/04/25 06:32:15;;;;;;;10.48;4.68;;;8.80;99.50;;;;;;4264882;27;20038;-84
2022/04/25 06:34:16;;;;;;;8.98;5.13;;;8.80;99.40;;;;;;4253478;27;20035;-84
2022/04/25 06:36:17;;;;;;;9.55;4.93;;;8.80;99.40;;;;;;4264920;27;20048;-85
2022/04/25 06:38:18;;;;;;;11.57;5.70;;;8.70;99.40;;;;;;4248187;28;20115;-84
2022/04/25 06:40:21;;;;;;;10.02;4.80;;;8.70;99.40;;;;;;4249989;27;20047;-84
2022/04/25 06:42:25;;;;;;;11.00;5.10;;;8.70;99.40;;;;;;4250229;27;20035;-84
2022/04/25 06:44:25;;;;;;;10.25;5.47;;;8.60;99.40;;;;;;4266897;27;20043;-84
2022/04/25 06:46:26;;;;;;;13.77;5.07;;;8.60;99.50;;;;;;4265512;27;20406;-84
2022/04/25 06:48:27;;;;;;;14.70;5.70;;;9.20;99.70;;;;;;4265315;27;20050;-84
2022/04/25 06:50:27;;;;;;;10.00;6.05;;;8.60;99.60;;;;;;4246656;28;20039;-84
2022/04/25 06:52:28;;;;;;;12.10;5.75;;;8.70;99.70;;;;;;4265226;27;20078;-84
2022/04/25 06:54:30;;;;;;;11.52;5.53;;;9.30;99.80;;;;;;4264946;27;20038;-85
2022/04/25 06:56:31;;;;;;;11.98;6.28;;;9.40;99.80;;;;;;4264523;27;20039;-85
2022/04/25 06:58:32;;;;;;;15.80;6.63;;;8.70;99.60;;;;;;4264215;27;20074;-84
2022/04/25 07:00:33;;;;;;;9.07;5.13;;;8.80;99.70;;;;;;4231471;27;20131;-84
2022/04/25 07:02:34;;;;;;;11.23;6.15;;;9.10;99.70;;;;;;4266208;27;20498;-84
2022/04/25 07:04:35;;;;;;;10.43;5.82;;;9.60;99.70;;;;;;4265334;27;20042;-84
2022/04/25 07:06:36;;;;;;;14.45;5.40;;;8.90;99.40;;;;;;4248252;28;20118;-83
2022/04/25 07:08:37;;;;;;;14.52;6.95;;;8.90;99.40;;;;;;4230078;28;20579;-83
2022/04/25 07:10:37;;;;;;;10.10;5.47;;;9.50;99.50;;;;;;4248139;28;20130;-83
2022/04/25 07:12:38;;;;;;;9.60;5.38;;;9.10;99.40;;;;;;4248181;28;20047;-83
2022/04/25 07:14:40;;;;;;;9.85;5.93;;;9.70;99.60;;;;;;4249222;28;20035;-84
2022/04/25 07:16:45;;;;;;;13.23;5.40;;;9.20;99.20;;;;;;4249064;27;20146;-85
2022/04/25 07:18:45;;;;;;;9.23;3.88;;;9.30;99.10;;;;;;4249054;28;20054;-83
2022/04/25 07:20:47;;;;;;;10.10;4.30;;;9.30;99.00;;;;;;4248456;28;20039;-83
2022/04/25 07:29:48;;;;;;;;;;;9.30;98.90;;;;;;4251821;27;20592;-84
2022/04/25 07:31:51;;;;;;;8.75;3.97;;;9.20;99.10;;;;;;4233823;28;20007;-84
2022/04/25 07:33:56;;;;;;;9.65;4.93;;;9.20;98.70;;;;;;4257241;27;20046;-83
2022/04/25 07:35:58;;;;;;;8.93;4.18;;;9.30;98.90;;;;;;4266371;27;20039;-84
2022/04/25 07:37:59;;;;;;;7.53;3.97;;;9.20;98.90;;;;;;4256767;27;20043;-84
2022/04/25 07:40:01;;;;;;;11.15;4.45;;;10.10;99.30;;;;;;4255243;27;20119;-84
2022/04/25 07:42:02;;;;;;;7.80;3.50;;;10.20;99.30;;;;;;4255051;27;20161;-85
2022/04/25 07:44:04;;;;;;;6.43;3.53;;;9.30;99.20;;;;;;4239848;28;20205;-84
2022/04/25 07:46:07;;;;;;;6.70;2.95;;;9.20;99.10;;;;;;4256737;27;20412;-84
2022/04/25 07:48:07;;;;;;;9.63;3.70;;;8.40;98.80;;;;;;4236852;28;20114;-85
2022/04/25 07:50:12;;;;;;;6.65;2.58;;;9.70;99.00;;;;;;4255253;27;20395;-85
2022/04/25 07:52:13;;;;;;;8.43;2.50;;;9.20;98.70;;;;;;4258618;27;20505;-84
2022/04/25 07:54:16;;;;;;;5.78;2.70;;;10.40;99.00;;;;;;4237028;28;20051;-84
2022/04/25 07:56:17;;;;;;;6.47;2.72;;;10.00;98.80;;;;;;4255231;27;20043;-84
2022/04/25 07:58:18;;;;;;;5.90;3.08;;;9.30;98.50;;;;;;4247830;27;20167;-84
2022/04/25 08:00:20;;;;;;;5.35;2.97;;;;;;;;;;4249476;27;20398;-84
2022/04/25 08:02:20;;;;;;;7.43;2.75;;;9.40;98.30;;;;;;4270567;27;20043;-84
2022/04/25 08:04:21;;;;;;;7.10;3.13;;;9.50;98.00;;;;;;4270644;27;20114;-84
2022/04/25 08:06:23;;;;;;;6.68;2.80;;;9.70;97.90;;;;;;4270715;27;20072;-84
2022/04/25 08:08:25;;;;;;;7.22;3.30;;;9.60;97.80;;;;;;4270586;27;20122;-85
2022/04/25 08:10:25;;;;;;;8.40;3.22;;;9.80;97.60;;;;;;4276882;27;20043;-85
2022/04/25 08:19:24;;;;;;;6.25;2.88;;;10.50;96.80;;;;;;4275067;27;20533;-85
2022/04/25 08:21:25;;;;;;;9.05;2.42;;;10.50;96.70;;;;;;4282146;27;20038;-84
2022/04/25 08:23:26;;;;;;;5.85;3.10;;;10.50;96.80;;;;;;4269964;27;20429;-84
2022/04/25 08:25:30;;;;;;;7.18;2.88;;;10.30;96.70;;;;;;4260405;27;20035;-84
2022/04/25 08:27:31;;;;;;;5.68;2.25;;;10.40;96.90;;;;;;4285293;27;20050;-85
2022/04/25 08:29:33;;;;;;;7.82;2.60;;;10.30;96.80;;;;;;4285013;27;20062;-82
2022/04/25 08:31:35;;;;;;;6.88;2.72;;;10.90;96.90;;;;;;4286692;27;20042;-84
2022/04/25 08:33:36;;;;;;;7.22;2.80;;;10.60;96.80;;;;;;4286872;27;20090;-84
2022/04/25 08:35:39;;;;;;;4.45;2.08;;;10.90;96.70;;;;;;4274480;27;20455;-85
2022/04/25 08:37:41;;;;;;;7.20;3.08;;;11.20;96.60;;;;;;4251280;27;20042;-84
2022/04/25 08:39:42;;;;;;;8.18;2.70;;;10.90;96.20;;;;;;4269805;27;20050;-84
2022/04/25 08:41:46;;;;;;;6.75;2.58;;;11.00;96.10;;;;;;4273414;27;20440;-84
2022/04/25 08:43:51;;;;;;;6.95;3.17;;;;;;;;;;4273022;27;20047;-84
2022/04/25 08:45:53;;;;;;;9.32;3.35;;;;;;;;;;4272216;27;20038;-84
2022/04/25 08:47:57;;;;;;;7.30;2.83;;;11.10;95.90;;;;;;4272533;27;20069;-84
2022/04/25 08:49:58;;;;;;;7.90;3.00;;;12.10;95.90;;;;;;4270222;27;20035;-85
2022/04/25 08:52:03;;;;;;;5.18;2.80;;;12.30;95.50;;;;;;4272894;27;20053;-84
2022/04/25 08:54:08;;;;;;;7.15;3.53;;;;;;;;;;4267629;27;20433;-83
2022/04/25 08:56:10;;;;;;;4.75;2.45;;;11.60;95.00;;;;;;4268843;27;20099;-84
2022/04/25 08:58:12;;;;;;;4.47;2.40;;;11.90;94.80;;;;;;4274010;27;20075;-83
2022/04/25 09:00:13;;;;;;;5.63;2.58;;;12.00;94.60;;;;;;4270944;27;20085;-84
2022/04/25 09:02:18;;;;;;;4.53;2.83;;;12.00;94.50;;;;;;4272961;27;20039;-84
2022/04/25 09:04:20;;;;;;;6.97;2.60;;;11.90;94.30;;;;;;4254186;27;20473;-84
2022/04/25 09:06:20;;;;;;;5.00;2.30;;;11.90;94.30;;;;;;4256860;27;20099;-84
2022/04/25 09:08:21;;;;;;;4.15;2.13;;;11.80;94.40;;;;;;4265343;27;20034;-84
2022/04/25 09:10:22;;;;;;;5.25;2.08;;;11.80;94.40;;;;;;4267512;27;20047;-84
2022/04/25 09:12:23;;;;;;;4.55;2.88;;;11.70;94.40;;;;;;4249032;27;20047;-84
2022/04/25 09:14:24;;;;;;;8.48;2.80;;;11.70;94.30;;;;;;4267430;27;20082;-84
2022/04/25 09:16:25;;;;;;;6.63;2.60;;;11.70;94.70;;;;;;4247599;27;20042;-84
2022/04/25 09:18:25;;;;;;;9.70;2.63;;;11.70;94.30;;;;;;4248521;27;20043;-84
2022/04/25 09:20:27;;;;;;;4.18;2.35;;;11.80;94.30;;;;;;4250476;27;20258;-85
2022/04/25 09:22:39;;;;;;;6.15;2.30;;;11.80;94.20;;;;;;4251412;27;20039;-85
2022/04/25 09:24:45;;;;;;;7.95;2.83;;;11.70;94.10;;;;;;4249652;27;20118;-85
2022/04/25 09:26:46;;;;;;;8.57;2.55;;;11.90;94.00;;;;;;4249578;27;20047;-84
2022/04/25 09:28:49;;;;;;;8.10;2.42;;;11.80;94.30;;;;;;4248734;27;20056;-86
2022/04/25 09:30:57;;;;;;;6.18;2.38;;;11.90;94.30;;;;;;4249069;27;20518;-86
2022/04/25 09:32:58;;;;;;;5.88;2.30;;;11.80;94.20;;;;;;4247362;27;20039;-85
2022/04/25 09:35:19;;;;;;;6.10;1.90;;;11.80;94.20;;;;;;4249512;27;20082;-85
2022/04/25 09:37:19;;;;;;;9.65;2.15;;;12.00;94.00;;;;;;4248675;27;20494;-86
2022/04/25 09:39:28;;;;;;;3.53;2.15;;;12.00;93.90;;;;;;4250102;27;20123;-85
2022/04/25 09:41:34;;;;;;;4.47;2.33;;;12.10;94.00;;;;;;4249629;27;20043;-85
2022/04/25 09:43:38;;;;;;;7.20;2.65;;;12.30;93.50;;;;;;4250298;27;20094;-86
2022/04/25 09:45:42;;;;;;;5.80;2.58;;;12.70;93.30;;;;;;4249367;27;20095;-86
2022/04/25 09:47:43;;;;;;;6.07;2.30;;;12.50;93.20;;;;;;4242196;27;20498;-85
2022/04/25 09:50:00;;;;;;;4.50;2.47;;;12.60;93.00;;;;;;4239204;27;20084;-84
2022/04/25 09:52:05;;;;;;;5.57;2.35;;;;;;;;;;4248501;27;20483;-85
2022/04/25 09:54:07;;;;;;;4.60;2.00;;;;;;;;;;4244792;27;20481;-85
2022/04/25 09:56:12;;;;;;;4.57;2.20;;;;;;;;;;4243170;27;20043;-85
2022/04/25 09:58:19;;;;;;;5.03;2.15;;;12.70;92.70;;;;;;4237724;27;20051;-85
2022/04/25 10:00:31;;;;;;;5.40;2.60;;;;;;;;;;4232602;27;20117;-84
2022/04/25 10:02:32;;;;;;;11.00;3.03;;;;;;;;;;4236650;27;20060;-84
2022/04/25 10:04:36;;;;;;;5.00;2.40;;;;;;;;;;4244782;27;20043;-85
2022/04/25 10:06:37;;;;;;;5.60;2.33;;;;;;;;;;4241459;27;20055;-84
2022/04/25 10:08:41;;;;;;;6.40;2.95;;;;;;;;;;4242493;27;20043;-85
2022/04/25 10:10:46;;;;;;;3.22;1.98;;;;;;;;;;4260019;27;20035;-85
2022/04/25 10:12:47;;;;;;;7.40;2.40;;;;;;;;;;4244902;27;20047;-84
2022/04/25 10:14:48;;;;;;;4.20;2.33;;;;;;;;;;4248289;27;20096;-85
2022/04/25 10:16:50;;;;;;;9.90;2.30;;;;;;;;;;4242172;27;20408;-84
2022/04/25 10:18:53;;;;;;;7.18;2.53;;;;;;;;;;4253791;27;20054;-85
2022/04/25 10:20:54;;;;;;;4.68;1.80;;;;;;;;;;4260014;27;20103;-84
2022/04/25 10:22:56;;;;;;;3.90;2.38;;;;;;;;;;4252737;27;20043;-85
2022/04/25 10:24:57;;;;;;;9.48;2.63;;;;;;;;;;4229770;28;20051;-85
2022/04/25 10:26:58;;;;;;;5.90;2.05;;;;;;;;;;4249316;27;20052;-84
2022/04/25 10:29:07;;;;;;;5.95;2.20;;;;;;;;;;4252963;27;20093;-87
2022/04/25 10:31:09;;;;;;;5.20;2.17;;;;;;;;;;4261541;27;20470;-87
2022/04/25 10:33:22;;;;;;;6.38;2.42;;;;;;;;;;4236946;28;20047;-86
2022/04/25 10:35:42;;;;;;;7.20;2.58;;;;;;;;;;4264809;27;20047;-87
2022/04/25 10:37:44;;;;;;;7.50;2.67;;;;;;;;;;4243727;28;20266;-86
2022/04/25 10:39:47;;;;;;;3.80;1.90;;;;;;;;;;4243497;28;20039;-86
2022/04/25 10:44:19;;;;;;;3.17;2.00;;;;;;;;;;4255405;27;20426;-87
2022/04/25 10:46:20;;;;;;;6.38;2.60;;;;;;;;;;4258654;27;20070;-87
2022/04/25 10:48:21;;;;;;;6.38;2.30;;;;;;;;;;4259000;27;20471;-87
2022/04/25 10:50:22;;;;;;;7.07;2.08;;;;;;;;;;4234985;28;20039;-86
2022/04/25 10:54:54;;;;;;;8.07;4.10;;;;;;;;;;4255562;27;20368;-86
2022/04/25 10:57:22;;;;;;;3.83;2.33;;;;;;;;;;4257697;27;20164;-85
2022/04/25 10:59:25;;;;;;;5.50;2.42;;;;;;;;;;4249409;27;20131;-86
2022/04/25 11:01:31;;;;;;;5.75;2.33;;;;;;;;;;4239267;27;20515;-86
2022/04/25 11:03:33;;;;;;;4.55;2.28;;;;;;;;;;4251425;27;20051;-86
2022/04/25 11:05:38;;;;;;;7.97;2.10;;;;;;;;;;4235589;27;20052;-87
2022/04/25 11:07:40;;;;;;;3.83;1.90;;;;;;;;;;4245337;27;20043;-86
2022/04/25 11:09:42;;;;;;;3.33;2.17;;;;;;;;;;4269490;27;20490;-87
2022/04/25 11:11:47;;;;;;;4.05;2.17;;;;;;;;;;4259823;27;20806;-87
2022/04/25 11:13:51;;;;;;;6.32;2.50;;;;;;;;;;4262428;27;20445;-86
2022/04/25 11:15:53;;;;;;;3.92;2.10;;;;;;;;;;4232545;28;20050;-87
2022/04/25 11:18:19;;;;;;;4.72;2.47;;;;;;;;;;4244230;27;20587;-86
2022/04/25 11:20:41;;;;;;;4.32;2.30;;;;;;;;;;4253009;27;20402;-88
2022/04/25 11:22:46;;;;;;;4.97;2.17;;;;;;;;;;4260700;27;20055;-87
2022/04/25 11:24:47;;;;;;;6.20;1.92;;;;;;;;;;4261109;27;20456;-87